createdAt,value
2022-10-23T00:00:52.710Z,98915.00
2022-10-23T00:04:03.601Z,98917.80
2022-10-23T00:07:11.813Z,98918.80
2022-10-23T00:10:21.495Z,98925.40
2022-10-23T00:13:29.687Z,98931.20
2022-10-23T00:16:38.175Z,98929.40
2022-10-23T00:19:46.681Z,98936.20
2022-10-23T00:22:55.311Z,98932.80
2022-10-23T00:26:03.880Z,98931.20
2022-10-23T00:29:12.695Z,98928.60
2022-10-23T00:32:20.886Z,98939.60
2022-10-23T00:35:28.847Z,98946.80
2022-10-23T00:38:37.200Z,98943.20
2022-10-23T00:41:45.203Z,98946.20
2022-10-23T00:45:28.048Z,98946.60
2022-10-23T00:48:35.849Z,98954.00
2022-10-23T00:51:49.050Z,98956.20
2022-10-23T00:54:58.013Z,98960.20
2022-10-23T00:58:06.291Z,98967.00
2022-10-23T01:01:24.757Z,98967.80
2022-10-23T01:04:33.405Z,98964.80
2022-10-23T01:07:51.852Z,98971.80
2022-10-23T01:14:19.322Z,98973.20
2022-10-23T01:17:39.674Z,98978.20
2022-10-23T01:20:56.626Z,98969.60
2022-10-23T01:24:20.659Z,98972.00
2022-10-23T01:27:33.334Z,98972.00
2022-10-23T01:30:45.915Z,98969.40
2022-10-23T01:34:02.033Z,98973.60
2022-10-23T01:37:15.274Z,98969.20
2022-10-23T01:40:30.600Z,98969.40
2022-10-23T01:43:49.216Z,98966.40
2022-10-23T01:47:00.625Z,98967.60
2022-10-23T01:50:12.804Z,98967.40
2022-10-23T01:53:22.241Z,98971.00
2022-10-23T01:56:36.284Z,98970.40
2022-10-23T01:59:51.265Z,98970.80
2022-10-23T02:03:03.373Z,98969.80
2022-10-23T02:06:12.487Z,98969.40
2022-10-23T02:09:20.295Z,98967.60
2022-10-23T02:12:39.715Z,98965.20
2022-10-23T02:15:55.674Z,98964.80
2022-10-23T02:19:18.783Z,98959.00
2022-10-23T02:22:32.174Z,98957.80
2022-10-23T02:25:50.511Z,98959.80
2022-10-23T02:32:21.999Z,98957.80
2022-10-23T02:35:29.894Z,98959.60
2022-10-23T02:38:42.372Z,98962.40
2022-10-23T02:41:56.485Z,98960.60
2022-10-23T02:45:02.830Z,98967.60
2022-10-23T02:48:18.752Z,98972.00
2022-10-23T02:51:40.607Z,98969.60
2022-10-23T02:55:15.193Z,98974.40
2022-10-23T02:58:33.942Z,98976.20
2022-10-23T03:01:51.330Z,98984.60
2022-10-23T03:05:01.821Z,98994.60
2022-10-23T03:08:11.616Z,98996.20
2022-10-23T03:11:19.792Z,98993.20
2022-10-23T03:14:27.897Z,98998.40
2022-10-23T03:17:35.698Z,99002.40
2022-10-23T03:20:43.467Z,98998.40
2022-10-23T03:23:51.980Z,98994.80
2022-10-23T03:30:10.429Z,99005.20
2022-10-23T03:33:18.640Z,99005.40
2022-10-23T03:36:26.860Z,99002.40
2022-10-23T03:39:34.938Z,99001.80
2022-10-23T03:42:42.959Z,99000.00
2022-10-23T03:45:50.924Z,99005.20
2022-10-23T03:48:59.733Z,99003.80
2022-10-23T03:52:08.373Z,99002.40
2022-10-23T03:55:17.883Z,99002.80
2022-10-23T03:58:25.681Z,99002.60
2022-10-23T04:01:33.629Z,99006.80
2022-10-23T04:04:41.406Z,99005.00
2022-10-23T04:07:49.285Z,99008.80
2022-10-23T04:10:58.470Z,99004.40
2022-10-23T04:14:06.602Z,99004.60
2022-10-23T04:17:14.301Z,99000.80
2022-10-23T04:20:22.513Z,99000.60
2022-10-23T04:23:30.728Z,98999.20
2022-10-23T04:26:38.763Z,98993.20
2022-10-23T04:29:46.448Z,98992.20
2022-10-23T04:32:56.192Z,98987.60
2022-10-23T04:36:04.198Z,98985.40
2022-10-23T04:39:13.126Z,98991.20
2022-10-23T04:42:21.094Z,98995.40
2022-10-23T04:45:29.212Z,98990.20
2022-10-23T04:48:37.171Z,98984.80
2022-10-23T04:51:44.892Z,98995.20
2022-10-23T04:54:52.930Z,98997.20
2022-10-23T04:58:00.883Z,99007.60
2022-10-23T05:01:10.620Z,99002.20
2022-10-23T05:04:16.939Z,99004.40
2022-10-23T05:07:24.610Z,99010.40
2022-10-23T05:10:33.128Z,99014.40
2022-10-23T05:13:41.131Z,99015.40
2022-10-23T05:16:55.220Z,99013.80
2022-10-23T05:20:07.729Z,99016.00
2022-10-23T05:23:19.598Z,99019.60
2022-10-23T05:26:28.091Z,99014.20
2022-10-23T05:29:36.021Z,99012.60
2022-10-23T05:32:44.292Z,99017.60
2022-10-23T05:35:52.515Z,99023.00
2022-10-23T05:39:00.826Z,99028.80
2022-10-23T05:42:09.246Z,99035.40
2022-10-23T05:45:17.502Z,99030.00
2022-10-23T05:48:35.501Z,99030.80
2022-10-23T05:51:44.412Z,99028.00
2022-10-23T05:54:53.734Z,99035.00
2022-10-23T05:58:02.733Z,99032.40
2022-10-23T06:01:13.881Z,99030.60
2022-10-23T06:04:21.785Z,99032.20
2022-10-23T06:07:33.726Z,99041.00
2022-10-23T06:10:43.765Z,99046.20
2022-10-23T06:13:52.035Z,99041.80
2022-10-23T06:16:59.888Z,99042.20
2022-10-23T06:20:09.815Z,99043.40
2022-10-23T06:23:15.992Z,99034.20
2022-10-23T06:26:24.202Z,99040.80
2022-10-23T06:29:32.518Z,99045.40
2022-10-23T06:32:40.751Z,99056.60
2022-10-23T06:35:49.302Z,99053.00
2022-10-23T06:38:57.582Z,99067.20
2022-10-23T06:42:05.587Z,99080.40
2022-10-23T06:45:14.083Z,99086.60
2022-10-23T06:48:22.141Z,99090.20
2022-10-23T06:51:30.016Z,99092.80
2022-10-23T06:54:37.794Z,99096.60
2022-10-23T06:57:46.376Z,99091.20
2022-10-23T07:00:54.875Z,99091.80
2022-10-23T07:04:03.554Z,99096.40
2022-10-23T07:07:11.378Z,99096.60
2022-10-23T07:10:19.849Z,99100.20
2022-10-23T07:13:27.980Z,99104.40
2022-10-23T07:16:35.975Z,99109.20
2022-10-23T07:19:43.815Z,99107.80
2022-10-23T07:22:57.609Z,99111.60
2022-10-23T07:26:11.216Z,99116.80
2022-10-23T07:29:19.593Z,99118.40
2022-10-23T07:32:28.658Z,99115.00
2022-10-23T07:35:38.580Z,99121.20
2022-10-23T07:38:47.914Z,99113.00
2022-10-23T07:41:55.977Z,99104.40
2022-10-23T07:45:04.554Z,99108.60
2022-10-23T07:48:12.580Z,99112.00
2022-10-23T07:51:20.644Z,99111.80
2022-10-23T07:54:28.826Z,99112.40
2022-10-23T07:57:36.604Z,99107.40
2022-10-23T08:00:45.639Z,99104.60
2022-10-23T08:03:53.630Z,99102.40
2022-10-23T08:07:02.063Z,99100.00
2022-10-23T08:10:11.497Z,99093.00
2022-10-23T08:13:20.645Z,99087.40
2022-10-23T08:16:29.600Z,99081.60
2022-10-23T08:19:38.770Z,99088.60
2022-10-23T08:22:47.204Z,99082.40
2022-10-23T08:26:02.839Z,99085.80
2022-10-23T08:29:10.798Z,99083.20
2022-10-23T08:32:19.120Z,99081.00
2022-10-23T08:35:27.593Z,99086.20
2022-10-23T08:38:36.351Z,99085.60
2022-10-23T08:41:49.574Z,99080.00
2022-10-23T08:45:07.718Z,99080.20
2022-10-23T08:48:26.858Z,99081.40
2022-10-23T08:51:44.016Z,99078.40
2022-10-23T08:55:01.541Z,99069.80
2022-10-23T08:58:16.890Z,99073.00
2022-10-23T09:01:43.373Z,99067.00
2022-10-23T09:04:55.997Z,99073.40
2022-10-23T09:08:25.010Z,99074.80
2022-10-23T09:11:43.200Z,99076.80
2022-10-23T09:15:21.573Z,99087.60
2022-10-23T09:18:29.617Z,99091.80
2022-10-23T09:21:39.077Z,99084.60
2022-10-23T09:24:53.012Z,99092.80
2022-10-23T09:28:05.744Z,99093.20
2022-10-23T09:31:16.164Z,99092.80
2022-10-23T09:34:28.165Z,99091.00
2022-10-23T09:37:46.595Z,99089.00
2022-10-23T09:40:54.942Z,99090.20
2022-10-23T09:44:20.347Z,99093.20
2022-10-23T09:47:29.686Z,99092.00
2022-10-23T09:50:38.237Z,99085.80
2022-10-23T09:53:56.894Z,99089.60
2022-10-23T09:57:03.026Z,99089.60
2022-10-23T10:00:25.275Z,99087.80
2022-10-23T10:03:33.850Z,99087.40
2022-10-23T10:09:56.326Z,99077.40
2022-10-23T10:13:02.757Z,99070.20
2022-10-23T10:16:22.637Z,99064.60
2022-10-23T10:19:52.491Z,99060.20
2022-10-23T10:23:08.488Z,99058.40
2022-10-23T10:26:31.933Z,99049.00
2022-10-23T10:30:03.311Z,99051.40
2022-10-23T10:33:20.430Z,99041.00
2022-10-23T10:36:52.233Z,99052.20
2022-10-23T10:40:11.774Z,99050.40
2022-10-23T10:43:30.982Z,99043.60
2022-10-23T10:46:53.160Z,99043.40
2022-10-23T10:50:17.625Z,99032.20
2022-10-23T10:53:35.222Z,99025.40
2022-10-23T10:56:46.646Z,99029.40
2022-10-23T10:59:57.881Z,99024.60
2022-10-23T11:03:23.426Z,99009.20
2022-10-23T11:06:38.608Z,99006.80
2022-10-23T11:09:48.011Z,98999.80
2022-10-23T11:12:56.333Z,98993.20
2022-10-23T11:16:15.407Z,98997.00
2022-10-23T11:19:29.500Z,98989.60
2022-10-23T11:22:50.219Z,98991.00
2022-10-23T11:26:20.306Z,98990.60
2022-10-23T11:30:00.552Z,98994.00
2022-10-23T11:34:19.208Z,98994.00
2022-10-23T11:37:28.763Z,98995.80
2022-10-23T11:40:37.190Z,98995.20
2022-10-23T11:43:57.789Z,98987.60
2022-10-23T11:47:26.128Z,98986.00
2022-10-23T11:50:53.750Z,98978.40
2022-10-23T11:54:03.216Z,98980.40
2022-10-23T11:57:18.630Z,98984.40
2022-10-23T12:00:32.090Z,98976.40
2022-10-23T12:04:03.566Z,98980.60
2022-10-23T12:07:26.209Z,98974.40
2022-10-23T12:10:45.132Z,98968.60
2022-10-23T12:13:53.088Z,98963.40
2022-10-23T12:17:01.580Z,98957.00
2022-10-23T12:20:28.407Z,98955.80
2022-10-23T12:24:10.761Z,98950.00
2022-10-23T12:27:34.225Z,98944.80
2022-10-23T12:30:57.011Z,98941.00
2022-10-23T12:34:23.616Z,98940.40
2022-10-23T12:38:03.409Z,98935.00
2022-10-23T12:41:17.542Z,98937.00
2022-10-23T12:44:28.197Z,98926.80
2022-10-23T12:50:56.306Z,98925.60
2022-10-23T12:54:15.068Z,98926.80
2022-10-23T12:57:28.474Z,98925.80
2022-10-23T13:00:36.485Z,98925.80
2022-10-23T13:03:45.297Z,98925.40
2022-10-23T13:06:56.130Z,98921.40
2022-10-23T13:10:03.780Z,98911.00
2022-10-23T13:13:19.128Z,98913.80
2022-10-23T13:16:30.166Z,98905.20
2022-10-23T13:19:41.424Z,98900.60
2022-10-23T13:22:54.161Z,98895.60
2022-10-23T13:26:06.354Z,98898.00
2022-10-23T13:29:27.477Z,98901.00
2022-10-23T13:32:35.272Z,98895.00
2022-10-23T13:35:44.195Z,98884.60
2022-10-23T13:39:05.008Z,98890.60
2022-10-23T13:42:19.130Z,98883.60
2022-10-23T13:45:37.592Z,98883.20
2022-10-23T13:48:45.966Z,98878.80
2022-10-23T13:55:22.088Z,98872.60
2022-10-23T13:58:30.162Z,98858.20
2022-10-23T14:01:39.642Z,98860.20
2022-10-23T14:04:47.874Z,98861.60
2022-10-23T14:07:56.309Z,98859.80
2022-10-23T14:11:05.107Z,98857.80
2022-10-23T14:14:13.586Z,98853.40
2022-10-23T14:17:22.198Z,98852.80
2022-10-23T14:20:31.407Z,98848.20
2022-10-23T14:23:39.765Z,98851.40
2022-10-23T14:26:48.230Z,98855.80
2022-10-23T14:29:57.683Z,98859.00
2022-10-23T14:33:06.101Z,98848.80
2022-10-23T14:36:15.363Z,98845.80
2022-10-23T14:39:25.316Z,98839.40
2022-10-23T14:42:34.553Z,98835.00
2022-10-23T14:45:42.848Z,98831.60
2022-10-23T14:48:56.456Z,98830.20
2022-10-23T14:52:09.565Z,98835.20
2022-10-23T14:55:18.634Z,98838.60
2022-10-23T14:58:27.153Z,98843.00
2022-10-23T15:01:42.290Z,98835.20
2022-10-23T15:04:53.925Z,98829.80
2022-10-23T15:08:01.848Z,98824.80
2022-10-23T15:11:12.595Z,98819.60
2022-10-23T15:14:21.042Z,98815.00
2022-10-23T15:17:29.477Z,98815.80
2022-10-23T15:20:37.356Z,98814.00
2022-10-23T15:23:47.760Z,98810.20
2022-10-23T15:26:55.401Z,98813.60
2022-10-23T15:30:03.748Z,98815.60
2022-10-23T15:33:16.461Z,98823.00
2022-10-23T15:36:28.209Z,98822.80
2022-10-23T15:39:36.749Z,98821.40
2022-10-23T15:42:46.081Z,98820.80
2022-10-23T15:45:54.324Z,98823.80
2022-10-23T15:49:02.781Z,98822.40
2022-10-23T15:55:25.740Z,98835.00
2022-10-23T15:58:32.061Z,98831.00
2022-10-23T16:01:40.587Z,98833.40
2022-10-23T16:04:48.601Z,98839.60
2022-10-23T16:07:56.913Z,98841.40
2022-10-23T16:11:05.481Z,98845.80
2022-10-23T16:14:19.582Z,98851.20
2022-10-23T16:17:27.438Z,98847.60
2022-10-23T16:20:35.644Z,98849.60
2022-10-23T16:23:43.824Z,98857.80
2022-10-23T16:26:53.535Z,98858.80
2022-10-23T16:29:59.620Z,98860.00
2022-10-23T16:33:11.247Z,98852.20
2022-10-23T16:36:21.059Z,98855.20
2022-10-23T16:39:30.647Z,98854.00
2022-10-23T16:42:39.760Z,98846.40
2022-10-23T16:45:47.920Z,98850.80
2022-10-23T16:48:57.091Z,98870.40
2022-10-23T16:52:05.208Z,98870.40
2022-10-23T16:55:14.328Z,98868.20
2022-10-23T16:58:22.276Z,98878.20
2022-10-23T17:01:32.660Z,98882.60
2022-10-23T17:04:42.578Z,98884.20
2022-10-23T17:07:49.994Z,98879.40
2022-10-23T17:11:11.628Z,98871.80
2022-10-23T17:14:28.323Z,98863.00
2022-10-23T17:17:36.630Z,98866.20
2022-10-23T17:20:44.931Z,98862.60
2022-10-23T17:23:53.974Z,98863.40
2022-10-23T17:27:02.054Z,98867.40
2022-10-23T17:30:13.567Z,98858.20
2022-10-23T17:33:21.893Z,98863.20
2022-10-23T17:36:32.835Z,98856.80
2022-10-23T17:39:43.463Z,98860.20
2022-10-23T17:42:51.650Z,98855.40
2022-10-23T17:45:59.585Z,98849.40
2022-10-23T17:49:08.417Z,98849.80
2022-10-23T17:52:16.879Z,98853.40
2022-10-23T17:55:25.141Z,98861.20
2022-10-23T17:58:34.116Z,98858.00
2022-10-23T18:01:44.128Z,98863.80
2022-10-23T18:04:52.501Z,98860.40
2022-10-23T18:08:00.608Z,98860.20
2022-10-23T18:11:09.565Z,98854.60
2022-10-23T18:14:20.976Z,98856.40
2022-10-23T18:17:29.034Z,98857.60
2022-10-23T18:20:41.537Z,98850.20
2022-10-23T18:23:50.582Z,98855.40
2022-10-23T18:26:58.788Z,98859.60
2022-10-23T18:30:08.164Z,98846.40
2022-10-23T18:33:17.232Z,98851.00
2022-10-23T18:36:29.380Z,98842.00
2022-10-23T18:39:37.573Z,98841.20
2022-10-23T18:42:46.142Z,98845.60
2022-10-23T18:45:55.131Z,98850.60
2022-10-23T18:52:12.802Z,98850.40
2022-10-23T18:55:21.099Z,98852.60
2022-10-23T18:58:29.269Z,98852.40
2022-10-23T19:01:38.196Z,98849.40
2022-10-23T19:04:46.407Z,98849.60
2022-10-23T19:07:55.483Z,98847.40
2022-10-23T19:11:05.280Z,98847.80
2022-10-23T19:14:12.726Z,98847.60
2022-10-23T19:17:26.986Z,98843.20
2022-10-23T19:20:36.049Z,98840.60
2022-10-23T19:23:45.774Z,98839.20
2022-10-23T19:26:55.409Z,98826.00
2022-10-23T19:30:06.595Z,98817.20
2022-10-23T19:33:14.404Z,98817.60
2022-10-23T19:36:23.685Z,98819.40
2022-10-23T19:39:32.202Z,98823.60
2022-10-23T19:42:42.729Z,98824.00
2022-10-23T19:45:50.922Z,98828.80
2022-10-23T19:48:58.974Z,98830.20
2022-10-23T19:52:07.082Z,98829.00
2022-10-23T19:55:15.474Z,98830.00
2022-10-23T19:58:23.262Z,98829.60
2022-10-23T20:01:31.562Z,98832.60
2022-10-23T20:04:39.818Z,98838.20
2022-10-23T20:07:48.818Z,98845.80
2022-10-23T20:14:10.511Z,98847.00
2022-10-23T20:17:18.393Z,98845.80
2022-10-23T20:20:27.124Z,98843.00
2022-10-23T20:23:34.857Z,98850.60
2022-10-23T20:26:45.808Z,98845.60
2022-10-23T20:29:53.897Z,98836.00
2022-10-23T20:33:01.824Z,98831.00
2022-10-23T20:36:26.737Z,98825.80
2022-10-23T20:39:36.617Z,98821.60
2022-10-23T20:42:44.467Z,98806.60
2022-10-23T20:45:52.293Z,98801.20
2022-10-23T20:49:00.409Z,98789.20
2022-10-23T20:52:09.016Z,98786.00
2022-10-23T20:55:16.783Z,98783.80
2022-10-23T20:58:25.027Z,98785.40
2022-10-23T21:01:34.372Z,98780.60
2022-10-23T21:04:42.471Z,98784.00
2022-10-23T21:07:50.149Z,98788.80
2022-10-23T21:10:57.986Z,98794.40
2022-10-23T21:14:05.688Z,98787.00
2022-10-23T21:17:17.200Z,98776.80
2022-10-23T21:20:24.847Z,98777.80
2022-10-23T21:23:33.585Z,98787.20
2022-10-23T21:26:41.657Z,98804.60
2022-10-23T21:29:49.691Z,98809.60
2022-10-23T21:32:57.709Z,98797.20
2022-10-23T21:36:13.754Z,98800.80
2022-10-23T21:39:22.005Z,98802.20
2022-10-23T21:42:31.043Z,98804.80
2022-10-23T21:45:39.356Z,98795.80
2022-10-23T21:48:48.667Z,98786.60
2022-10-23T21:51:56.514Z,98775.80
2022-10-23T21:55:05.276Z,98782.20
2022-10-23T21:58:13.181Z,98779.20
2022-10-23T22:01:21.658Z,98775.60
2022-10-23T22:04:29.732Z,98787.20
2022-10-23T22:07:37.563Z,98785.60
2022-10-23T22:10:45.226Z,98797.80
2022-10-23T22:13:53.679Z,98808.20
2022-10-23T22:17:01.642Z,98800.60
2022-10-23T22:20:11.807Z,98809.00
2022-10-23T22:23:19.654Z,98800.00
2022-10-23T22:26:31.820Z,98802.00
2022-10-23T22:29:39.474Z,98798.60
2022-10-23T22:32:47.653Z,98797.40
2022-10-23T22:36:00.804Z,98784.00
2022-10-23T22:39:10.131Z,98778.20
2022-10-23T22:42:17.801Z,98778.20
2022-10-23T22:45:25.918Z,98780.00
2022-10-23T22:48:33.621Z,98783.80
2022-10-23T22:51:42.087Z,98788.00
2022-10-23T22:54:50.455Z,98779.80
2022-10-23T22:57:58.691Z,98775.60
2022-10-23T23:01:11.759Z,98774.60
2022-10-23T23:07:47.970Z,98761.20
2022-10-23T23:10:59.292Z,98755.00
2022-10-23T23:17:19.954Z,98753.00
2022-10-23T23:20:27.927Z,98757.20
2022-10-23T23:23:36.446Z,98758.40
2022-10-23T23:26:44.220Z,98759.20
2022-10-23T23:29:52.486Z,98753.20
2022-10-23T23:33:00.206Z,98747.80
2022-10-23T23:36:17.267Z,98747.60
2022-10-23T23:39:26.226Z,98751.80
2022-10-23T23:42:36.180Z,98752.20
2022-10-23T23:45:43.970Z,98748.40
2022-10-23T23:48:52.283Z,98755.60
2022-10-23T23:52:00.082Z,98746.60
2022-10-23T23:55:09.466Z,98745.60
2022-10-23T23:58:17.776Z,98739.00
